createdAt,value
2023-08-14T00:01:47.675Z,98623.80
2023-08-14T00:04:14.548Z,98623.06
2023-08-14T00:06:41.426Z,98625.07
2023-08-14T00:09:08.463Z,98622.54
2023-08-14T00:11:35.330Z,98624.92
2023-08-14T00:14:02.796Z,98625.29
2023-08-14T00:16:29.591Z,98624.01
2023-08-14T00:18:56.431Z,98624.43
2023-08-14T00:21:25.173Z,98623.70
2023-08-14T00:23:52.312Z,98624.23
2023-08-14T00:26:19.101Z,98622.39
2023-08-14T00:28:45.956Z,98620.48
2023-08-14T00:31:12.892Z,98621.52
2023-08-14T00:33:40.505Z,98620.09
2023-08-14T00:36:07.448Z,98619.14
2023-08-14T00:38:34.248Z,98621.84
2023-08-14T00:41:01.088Z,98625.02
2023-08-14T00:43:27.956Z,98622.48
2023-08-14T00:45:59.029Z,98622.61
2023-08-14T00:48:26.741Z,98629.83
2023-08-14T00:50:55.789Z,98636.34
2023-08-14T00:53:27.642Z,98642.77
2023-08-14T00:55:55.554Z,98646.86
2023-08-14T00:58:26.263Z,98646.20
2023-08-14T01:00:54.117Z,98649.13
2023-08-14T01:03:21.922Z,98650.02
2023-08-14T01:05:48.803Z,98656.30
2023-08-14T01:08:15.659Z,98658.68
2023-08-14T01:10:56.436Z,98661.98
2023-08-14T01:13:36.797Z,98668.67
2023-08-14T01:16:12.239Z,98672.09
2023-08-14T01:18:40.718Z,98675.83
2023-08-14T01:21:17.219Z,98676.23
2023-08-14T01:24:09.852Z,98678.64
2023-08-14T01:26:37.348Z,98677.19
2023-08-14T01:29:04.848Z,98683.66
2023-08-14T01:31:32.199Z,98681.98
2023-08-14T01:33:59.093Z,98684.56
2023-08-14T01:36:58.929Z,98683.65
2023-08-14T01:39:37.208Z,98685.23
2023-08-14T01:42:06.860Z,98683.52
2023-08-14T01:44:36.425Z,98684.77
2023-08-14T01:47:05.396Z,98687.10
2023-08-14T01:49:33.403Z,98687.09
2023-08-14T01:52:01.292Z,98682.00
2023-08-14T01:54:28.768Z,98682.02
2023-08-14T01:56:57.653Z,98682.64
2023-08-14T01:59:36.983Z,98682.63
2023-08-14T02:02:03.681Z,98685.05
2023-08-14T02:04:30.566Z,98685.57
2023-08-14T02:06:57.524Z,98687.67
2023-08-14T02:09:24.391Z,98686.20
2023-08-14T02:11:51.183Z,98682.69
2023-08-14T02:14:18.462Z,98687.30
2023-08-14T02:16:45.349Z,98689.09
2023-08-14T02:19:12.272Z,98688.41
2023-08-14T02:21:39.167Z,98691.05
2023-08-14T02:24:07.040Z,98689.02
2023-08-14T02:26:33.895Z,98690.79
2023-08-14T02:29:02.099Z,98682.45
2023-08-14T02:31:28.921Z,98685.56
2023-08-14T02:34:03.005Z,98687.98
2023-08-14T02:36:30.223Z,98685.63
2023-08-14T02:38:57.065Z,98686.95
2023-08-14T02:41:23.891Z,98686.58
2023-08-14T02:43:50.780Z,98685.86
2023-08-14T02:46:17.653Z,98688.95
2023-08-14T02:48:46.523Z,98693.54
2023-08-14T02:51:13.597Z,98689.33
2023-08-14T02:53:40.412Z,98693.52
2023-08-14T02:56:07.604Z,98693.52
2023-08-14T02:58:36.897Z,98692.59
2023-08-14T03:01:05.531Z,98693.52
2023-08-14T03:03:32.540Z,98698.16
2023-08-14T03:06:00.470Z,98697.98
2023-08-14T03:08:27.837Z,98701.23
2023-08-14T03:10:54.675Z,98700.66
2023-08-14T03:13:22.368Z,98704.48
2023-08-14T03:15:49.231Z,98703.02
2023-08-14T03:18:16.011Z,98700.84
2023-08-14T03:20:42.868Z,98701.48
2023-08-14T03:23:12.150Z,98701.34
2023-08-14T03:25:39.124Z,98698.69
2023-08-14T03:28:06.768Z,98698.91
2023-08-14T03:30:34.960Z,98702.73
2023-08-14T03:33:01.982Z,98703.05
2023-08-14T03:35:28.809Z,98702.50
2023-08-14T03:37:55.709Z,98700.23
2023-08-14T03:40:22.574Z,98702.58
2023-08-14T03:42:49.400Z,98704.60
2023-08-14T03:45:16.837Z,98703.05
2023-08-14T03:47:43.998Z,98702.60
2023-08-14T03:50:10.985Z,98707.42
2023-08-14T03:52:37.895Z,98710.16
2023-08-14T03:55:04.935Z,98711.66
2023-08-14T03:57:31.863Z,98710.11
2023-08-14T03:59:58.720Z,98713.51
2023-08-14T04:02:25.732Z,98715.63
2023-08-14T04:04:52.867Z,98720.88
2023-08-14T04:07:19.765Z,98723.14
2023-08-14T04:09:46.605Z,98728.46
2023-08-14T04:12:13.548Z,98727.63
2023-08-14T04:14:40.466Z,98730.00
2023-08-14T04:17:07.497Z,98727.29
2023-08-14T04:19:34.374Z,98727.48
2023-08-14T04:22:01.216Z,98725.01
2023-08-14T04:24:28.460Z,98719.20
2023-08-14T04:26:55.518Z,98718.15
2023-08-14T04:29:22.350Z,98716.33
2023-08-14T04:31:49.288Z,98716.02
2023-08-14T04:34:16.134Z,98720.27
2023-08-14T04:36:42.979Z,98722.86
2023-08-14T04:39:09.846Z,98726.25
2023-08-14T04:41:36.715Z,98724.97
2023-08-14T04:44:03.926Z,98726.05
2023-08-14T04:46:53.208Z,98729.02
2023-08-14T04:49:21.001Z,98724.94
2023-08-14T04:51:47.789Z,98726.02
2023-08-14T04:54:14.601Z,98725.84
2023-08-14T04:56:41.620Z,98718.42
2023-08-14T04:59:08.453Z,98720.36
2023-08-14T05:01:35.283Z,98716.13
2023-08-14T05:04:02.105Z,98717.86
2023-08-14T05:06:29.095Z,98717.82
2023-08-14T05:08:55.898Z,98718.08
2023-08-14T05:11:22.791Z,98720.40
2023-08-14T05:13:49.739Z,98721.77
2023-08-14T05:16:16.685Z,98721.46
2023-08-14T05:18:43.559Z,98722.37
2023-08-14T05:21:10.790Z,98727.11
2023-08-14T05:23:37.931Z,98727.40
2023-08-14T05:26:04.798Z,98733.30
2023-08-14T05:28:31.788Z,98730.75
2023-08-14T05:30:58.610Z,98733.91
2023-08-14T05:33:25.649Z,98738.65
2023-08-14T05:35:56.646Z,98743.14
2023-08-14T05:38:23.460Z,98747.20
2023-08-14T05:40:50.267Z,98747.00
2023-08-14T05:43:17.357Z,98753.23
2023-08-14T05:45:46.639Z,98754.46
2023-08-14T05:48:15.478Z,98752.95
2023-08-14T05:50:43.271Z,98756.09
2023-08-14T05:53:10.862Z,98758.02
2023-08-14T05:55:42.794Z,98758.55
2023-08-14T05:58:09.951Z,98757.88
2023-08-14T06:00:38.809Z,98758.58
2023-08-14T06:03:06.841Z,98758.36
2023-08-14T06:05:35.164Z,98760.25
2023-08-14T06:08:03.054Z,98758.15
2023-08-14T06:10:30.225Z,98764.02
2023-08-14T06:12:57.732Z,98769.55
2023-08-14T06:15:26.528Z,98770.99
2023-08-14T06:17:53.952Z,98768.95
2023-08-14T06:20:21.643Z,98771.26
2023-08-14T06:22:48.933Z,98769.11
2023-08-14T06:25:18.194Z,98771.52
2023-08-14T06:27:45.237Z,98769.99
2023-08-14T06:30:13.443Z,98765.72
2023-08-14T06:32:40.743Z,98768.34
2023-08-14T06:35:09.205Z,98770.59
2023-08-14T06:37:36.590Z,98773.50
2023-08-14T06:40:05.415Z,98774.34
2023-08-14T06:42:32.120Z,98775.28
2023-08-14T06:44:59.224Z,98774.55
2023-08-14T06:47:26.452Z,98779.05
2023-08-14T06:49:53.495Z,98775.29
2023-08-14T06:52:20.965Z,98776.60
2023-08-14T06:54:48.306Z,98773.23
2023-08-14T06:57:35.297Z,98773.02
2023-08-14T07:00:13.765Z,98770.70
2023-08-14T07:02:42.031Z,98778.69
2023-08-14T07:05:11.478Z,98781.29
2023-08-14T07:07:39.732Z,98781.65
2023-08-14T07:10:08.009Z,98782.13
2023-08-14T07:12:35.101Z,98783.73
2023-08-14T07:15:02.148Z,98788.14
2023-08-14T07:17:29.554Z,98786.98
2023-08-14T07:19:56.647Z,98792.20
2023-08-14T07:22:23.718Z,98789.85
2023-08-14T07:24:50.670Z,98788.13
2023-08-14T07:27:18.731Z,98788.38
2023-08-14T07:29:45.820Z,98788.11
2023-08-14T07:32:13.059Z,98786.91
2023-08-14T07:34:40.031Z,98784.71
2023-08-14T07:37:07.146Z,98791.18
2023-08-14T07:39:34.228Z,98793.55
2023-08-14T07:42:01.415Z,98791.27
2023-08-14T07:44:28.387Z,98788.58
2023-08-14T07:46:55.509Z,98782.33
2023-08-14T07:49:22.500Z,98783.92
2023-08-14T07:51:50.173Z,98786.10
2023-08-14T07:54:18.196Z,98785.54
2023-08-14T07:56:47.076Z,98791.76
2023-08-14T07:59:15.196Z,98788.43
2023-08-14T08:01:43.085Z,98791.85
2023-08-14T08:04:10.645Z,98790.25
2023-08-14T08:06:44.675Z,98791.14
2023-08-14T08:09:13.679Z,98785.34
2023-08-14T08:11:40.738Z,98788.27
2023-08-14T08:14:08.160Z,98785.92
2023-08-14T08:16:38.767Z,98786.61
2023-08-14T08:19:08.145Z,98786.19
2023-08-14T08:21:35.250Z,98789.38
2023-08-14T08:24:02.355Z,98784.41
2023-08-14T08:26:29.469Z,98785.64
2023-08-14T08:28:56.576Z,98787.05
2023-08-14T08:31:25.199Z,98785.63
2023-08-14T08:33:51.909Z,98790.55
2023-08-14T08:36:19.211Z,98796.92
2023-08-14T08:38:46.855Z,98794.02
2023-08-14T08:41:23.959Z,98798.60
2023-08-14T08:44:00.713Z,98796.45
2023-08-14T08:46:30.636Z,98794.98
2023-08-14T08:48:58.112Z,98795.23
2023-08-14T08:51:25.576Z,98793.65
2023-08-14T08:53:52.449Z,98794.33
2023-08-14T08:56:19.782Z,98794.98
2023-08-14T08:58:47.488Z,98795.87
2023-08-14T09:01:14.918Z,98793.48
2023-08-14T09:03:42.144Z,98795.20
2023-08-14T09:06:09.358Z,98789.73
2023-08-14T09:08:37.484Z,98785.93
2023-08-14T09:11:04.697Z,98791.92
2023-08-14T09:13:32.727Z,98790.11
2023-08-14T09:16:02.449Z,98787.87
2023-08-14T09:18:31.971Z,98787.58
2023-08-14T09:20:59.834Z,98785.38
2023-08-14T09:23:27.011Z,98784.13
2023-08-14T09:25:54.053Z,98776.47
2023-08-14T09:28:23.042Z,98778.25
2023-08-14T09:30:50.049Z,98779.13
2023-08-14T09:33:17.276Z,98781.96
2023-08-14T09:35:53.216Z,98781.71
2023-08-14T09:38:20.772Z,98781.45
2023-08-14T09:40:47.685Z,98780.15
2023-08-14T09:43:14.699Z,98776.70
2023-08-14T09:45:41.631Z,98775.21
2023-08-14T09:48:09.713Z,98775.38
2023-08-14T09:50:37.119Z,98771.77
2023-08-14T09:53:04.103Z,98775.02
2023-08-14T09:55:31.037Z,98777.14
2023-08-14T09:57:58.300Z,98774.05
2023-08-14T10:00:30.436Z,98773.91
2023-08-14T10:03:03.054Z,98771.73
2023-08-14T10:05:31.627Z,98770.20
2023-08-14T10:07:59.901Z,98768.78
2023-08-14T10:10:31.194Z,98770.66
2023-08-14T10:13:06.220Z,98767.83
2023-08-14T10:15:40.875Z,98766.58
2023-08-14T10:18:16.805Z,98763.38
2023-08-14T10:20:49.493Z,98766.55
2023-08-14T10:23:17.862Z,98760.80
2023-08-14T10:25:51.766Z,98761.85
2023-08-14T10:28:22.084Z,98757.70
2023-08-14T10:30:49.413Z,98754.38
2023-08-14T10:33:18.804Z,98756.73
2023-08-14T10:35:55.651Z,98757.23
2023-08-14T10:38:45.505Z,98756.86
2023-08-14T10:41:12.633Z,98752.02
2023-08-14T10:43:39.654Z,98750.52
2023-08-14T10:46:15.760Z,98748.55
2023-08-14T10:48:44.737Z,98747.95
2023-08-14T10:51:16.991Z,98750.48
2023-08-14T10:53:46.147Z,98744.63
2023-08-14T10:56:13.827Z,98743.27
2023-08-14T10:58:48.928Z,98735.28
2023-08-14T11:01:17.963Z,98737.37
2023-08-14T11:04:06.248Z,98738.98
2023-08-14T11:07:00.968Z,98734.51
2023-08-14T11:09:32.586Z,98734.34
2023-08-14T11:12:03.866Z,98737.70
2023-08-14T11:14:30.641Z,98733.28
2023-08-14T11:16:58.162Z,98730.99
2023-08-14T11:19:25.460Z,98729.95
2023-08-14T11:21:52.777Z,98728.02
2023-08-14T11:24:19.866Z,98726.73
2023-08-14T11:26:46.819Z,98726.94
2023-08-14T11:29:13.809Z,98724.16
2023-08-14T11:31:49.620Z,98721.64
2023-08-14T11:34:17.509Z,98721.67
2023-08-14T11:37:07.104Z,98724.22
2023-08-14T11:39:45.111Z,98727.52
2023-08-14T11:42:12.279Z,98725.30
2023-08-14T11:44:39.525Z,98722.90
2023-08-14T11:47:08.348Z,98724.15
2023-08-14T11:49:39.533Z,98722.17
2023-08-14T11:52:07.656Z,98721.23
2023-08-14T11:54:36.809Z,98722.39
2023-08-14T11:57:06.338Z,98716.54
2023-08-14T11:59:33.910Z,98718.17
2023-08-14T12:02:02.011Z,98711.52
2023-08-14T12:04:29.006Z,98711.92
2023-08-14T12:06:56.513Z,98712.55
2023-08-14T12:09:29.718Z,98706.57
2023-08-14T12:11:56.909Z,98702.52
2023-08-14T12:14:23.911Z,98698.20
2023-08-14T12:16:50.975Z,98694.81
2023-08-14T12:19:20.957Z,98693.10
2023-08-14T12:21:56.959Z,98688.69
2023-08-14T12:24:24.835Z,98685.89
2023-08-14T12:26:52.061Z,98684.05
2023-08-14T12:29:22.112Z,98682.52
2023-08-14T12:58:26.792Z,98673.63
2023-08-14T13:00:54.774Z,98672.73
2023-08-14T13:03:38.006Z,98669.80
2023-08-14T13:06:08.376Z,98668.44
2023-08-14T13:08:41.921Z,98672.70
2023-08-14T13:11:10.600Z,98673.44
2023-08-14T13:13:37.673Z,98670.18
2023-08-14T13:16:06.225Z,98671.39
2023-08-14T13:23:30.448Z,98663.48
2023-08-14T13:31:39.513Z,98659.89
2023-08-14T13:34:06.533Z,98660.93
2023-08-14T13:36:33.558Z,98663.05
2023-08-14T13:39:00.588Z,98658.60
2023-08-14T13:41:27.693Z,98656.63
2023-08-14T13:43:54.692Z,98654.19
2023-08-14T13:46:21.665Z,98653.96
2023-08-14T13:48:48.566Z,98653.38
2023-08-14T13:51:15.592Z,98654.70
2023-08-14T13:53:42.998Z,98654.64
2023-08-14T13:56:10.089Z,98654.29
2023-08-14T13:58:37.633Z,98651.56
2023-08-14T14:01:05.112Z,98646.72
2023-08-14T14:03:36.092Z,98648.30
2023-08-14T14:06:03.424Z,98644.77
2023-08-14T14:08:53.660Z,98637.77
2023-08-14T14:11:20.998Z,98636.49
2023-08-14T14:13:54.848Z,98635.14
2023-08-14T14:16:26.462Z,98634.49
2023-08-14T14:18:57.663Z,98635.06
2023-08-14T14:21:41.688Z,98632.06
2023-08-14T14:24:09.529Z,98635.89
2023-08-14T14:26:40.808Z,98632.27
2023-08-14T14:29:08.155Z,98634.30
2023-08-14T14:31:35.753Z,98627.19
2023-08-14T14:34:03.174Z,98628.98
2023-08-14T14:36:30.667Z,98627.77
2023-08-14T14:38:57.867Z,98626.54
2023-08-14T14:41:25.087Z,98621.48
2023-08-14T14:43:52.365Z,98620.60
2023-08-14T14:46:19.923Z,98624.61
2023-08-14T14:48:47.009Z,98624.52
2023-08-14T14:51:14.032Z,98620.41
2023-08-14T14:53:41.113Z,98619.76
2023-08-14T14:56:07.977Z,98615.70
2023-08-14T14:58:34.894Z,98618.24
2023-08-14T15:01:01.838Z,98619.98
2023-08-14T15:03:29.273Z,98618.09
2023-08-14T15:05:56.596Z,98618.33
2023-08-14T15:08:23.464Z,98618.64
2023-08-14T15:10:55.500Z,98615.09
2023-08-14T15:13:25.413Z,98613.88
2023-08-14T15:15:52.322Z,98615.03
2023-08-14T15:18:19.553Z,98612.09
2023-08-14T15:20:46.651Z,98608.79
2023-08-14T15:23:13.500Z,98609.17
2023-08-14T15:25:40.931Z,98608.40
2023-08-14T15:28:08.019Z,98605.08
2023-08-14T15:30:36.805Z,98607.42
2023-08-14T15:33:03.978Z,98607.61
2023-08-14T15:35:31.671Z,98605.11
2023-08-14T15:37:58.524Z,98604.19
2023-08-14T15:40:25.868Z,98602.70
2023-08-14T15:42:53.409Z,98600.74
2023-08-14T15:45:20.434Z,98599.31
2023-08-14T15:47:47.689Z,98599.41
2023-08-14T15:50:14.963Z,98596.64
2023-08-14T15:52:41.863Z,98593.35
2023-08-14T15:55:09.534Z,98591.44
2023-08-14T15:57:36.540Z,98588.59
2023-08-14T16:00:07.993Z,98584.88
2023-08-14T16:02:35.521Z,98583.26
2023-08-14T16:05:02.756Z,98582.88
2023-08-14T16:07:29.615Z,98588.30
2023-08-14T16:09:56.559Z,98587.95
2023-08-14T16:12:23.833Z,98591.17
2023-08-14T16:14:51.082Z,98586.11
2023-08-14T16:17:25.874Z,98589.50
2023-08-14T16:19:52.910Z,98591.20
2023-08-14T16:22:20.841Z,98587.46
2023-08-14T16:24:49.594Z,98591.07
2023-08-14T16:27:19.806Z,98594.45
2023-08-14T16:29:47.659Z,98591.12
2023-08-14T16:32:16.183Z,98595.77
2023-08-14T16:34:44.018Z,98595.46
2023-08-14T16:37:12.782Z,98593.91
2023-08-14T16:39:39.944Z,98594.15
2023-08-14T16:42:07.781Z,98595.17
2023-08-14T16:44:35.402Z,98592.76
2023-08-14T16:47:02.378Z,98598.23
2023-08-14T16:49:35.650Z,98601.14
2023-08-14T16:52:02.825Z,98601.29
2023-08-14T16:54:30.059Z,98598.68
2023-08-14T16:56:57.368Z,98600.10
2023-08-14T16:59:24.561Z,98601.11
2023-08-14T17:01:51.624Z,98606.23
2023-08-14T17:04:18.915Z,98604.49
2023-08-14T17:06:45.949Z,98606.84
2023-08-14T17:09:15.384Z,98614.20
2023-08-14T17:11:42.592Z,98613.91
2023-08-14T17:14:09.768Z,98617.08
2023-08-14T17:16:43.508Z,98616.63
2023-08-14T17:19:10.877Z,98616.38
2023-08-14T17:21:55.255Z,98617.48
2023-08-14T17:24:42.684Z,98617.45
2023-08-14T17:27:10.581Z,98621.70
2023-08-14T17:29:52.796Z,98616.10
2023-08-14T17:32:20.603Z,98622.21
2023-08-14T17:35:04.515Z,98630.63
2023-08-14T17:37:32.301Z,98635.41
2023-08-14T17:39:59.960Z,98635.16
2023-08-14T17:42:29.858Z,98638.17
2023-08-14T17:45:12.405Z,98639.38
2023-08-14T17:47:39.777Z,98635.08
2023-08-14T17:50:07.049Z,98636.89
2023-08-14T17:52:40.372Z,98637.71
2023-08-14T17:55:08.668Z,98640.98
2023-08-14T17:57:40.385Z,98639.91
2023-08-14T18:00:08.643Z,98641.25
2023-08-14T18:02:35.493Z,98645.00
2023-08-14T18:05:02.339Z,98646.84
2023-08-14T18:07:29.144Z,98646.02
2023-08-14T18:09:56.681Z,98648.33
2023-08-14T18:12:24.752Z,98649.31
2023-08-14T18:14:51.544Z,98653.23
2023-08-14T18:17:18.721Z,98658.01
2023-08-14T18:19:45.927Z,98659.79
2023-08-14T18:22:12.730Z,98654.38
2023-08-14T18:24:40.158Z,98655.35
2023-08-14T18:27:06.899Z,98656.33
2023-08-14T18:29:33.761Z,98657.92
2023-08-14T18:32:00.501Z,98664.65
2023-08-14T18:34:27.444Z,98664.10
2023-08-14T18:36:54.253Z,98667.52
2023-08-14T18:39:21.103Z,98673.39
2023-08-14T18:41:47.935Z,98675.27
2023-08-14T18:44:14.768Z,98676.30
2023-08-14T18:46:41.624Z,98679.99
2023-08-14T18:49:09.032Z,98679.33
2023-08-14T18:51:35.957Z,98680.13
2023-08-14T18:54:04.018Z,98679.36
2023-08-14T18:56:30.794Z,98681.25
2023-08-14T18:58:59.497Z,98678.03
2023-08-14T19:01:43.995Z,98678.55
2023-08-14T19:04:25.741Z,98679.59
2023-08-14T19:06:56.586Z,98683.55
2023-08-14T19:09:23.348Z,98681.05
2023-08-14T19:11:50.155Z,98683.16
2023-08-14T19:14:17.174Z,98690.20
2023-08-14T19:16:44.045Z,98692.54
2023-08-14T19:19:11.001Z,98692.17
2023-08-14T19:21:37.857Z,98688.30
2023-08-14T19:24:05.048Z,98685.98
2023-08-14T19:26:31.936Z,98688.30
2023-08-14T19:28:59.138Z,98682.00
2023-08-14T19:31:28.967Z,98683.28
2023-08-14T19:33:59.971Z,98682.76
2023-08-14T19:36:26.796Z,98681.00
2023-08-14T19:38:53.674Z,98675.89
2023-08-14T19:41:20.553Z,98678.73
2023-08-14T19:43:47.350Z,98680.09
2023-08-14T19:46:14.202Z,98678.00
2023-08-14T19:48:41.206Z,98677.49
2023-08-14T19:51:12.822Z,98679.41
2023-08-14T19:53:39.628Z,98679.52
2023-08-14T19:56:06.969Z,98682.44
2023-08-14T19:58:34.366Z,98678.78
2023-08-14T20:01:02.621Z,98674.63
2023-08-14T20:03:31.517Z,98674.41
2023-08-14T20:05:58.685Z,98674.04
2023-08-14T20:08:25.592Z,98672.41
2023-08-14T20:10:52.414Z,98671.57
2023-08-14T20:13:19.227Z,98674.48
2023-08-14T20:15:49.234Z,98671.60
2023-08-14T20:18:16.813Z,98678.48
2023-08-14T20:20:44.772Z,98681.95
2023-08-14T20:23:12.160Z,98683.21
2023-08-14T20:25:39.027Z,98687.14
2023-08-14T20:28:07.087Z,98689.33
2023-08-14T20:30:40.566Z,98692.38
2023-08-14T20:33:07.950Z,98691.64
2023-08-14T20:35:46.243Z,98690.55
2023-08-14T20:38:13.754Z,98687.73
2023-08-14T20:40:41.340Z,98689.06
2023-08-14T20:43:24.037Z,98687.58
2023-08-14T20:45:50.905Z,98685.84
2023-08-14T20:48:17.791Z,98684.45
2023-08-14T20:50:49.469Z,98688.52
2023-08-14T20:53:17.157Z,98684.77
2023-08-14T20:55:44.596Z,98685.85
2023-08-14T20:58:12.351Z,98686.15
2023-08-14T21:00:43.800Z,98689.67
2023-08-14T21:03:16.378Z,98688.10
2023-08-14T21:05:50.656Z,98687.95
2023-08-14T21:08:18.045Z,98686.20
2023-08-14T21:10:44.887Z,98685.27
2023-08-14T21:13:11.742Z,98686.11
2023-08-14T21:15:39.137Z,98685.48
2023-08-14T21:18:08.505Z,98687.58
2023-08-14T21:20:35.386Z,98688.73
2023-08-14T21:23:02.353Z,98691.58
2023-08-14T21:25:34.890Z,98691.41
2023-08-14T21:28:05.194Z,98687.88
2023-08-14T21:30:32.117Z,98693.73
2023-08-14T21:32:58.849Z,98694.95
2023-08-14T21:35:25.642Z,98695.25
2023-08-14T21:37:52.456Z,98696.48
2023-08-14T21:40:19.210Z,98697.09
2023-08-14T21:42:46.728Z,98699.48
2023-08-14T21:45:13.448Z,98698.55
2023-08-14T21:47:40.281Z,98696.05
2023-08-14T21:50:07.514Z,98698.45
2023-08-14T21:52:34.388Z,98696.65
2023-08-14T21:55:01.102Z,98698.19
2023-08-14T21:57:28.113Z,98697.02
2023-08-14T21:59:54.854Z,98694.42
2023-08-14T22:02:21.728Z,98696.20
2023-08-14T22:04:48.596Z,98696.39
2023-08-14T22:07:20.539Z,98696.05
2023-08-14T22:09:48.464Z,98694.09
2023-08-14T22:12:15.604Z,98693.52
2023-08-14T22:14:44.824Z,98688.16
2023-08-14T22:17:14.518Z,98690.39
2023-08-14T22:19:41.324Z,98694.27
2023-08-14T22:22:08.110Z,98696.50
2023-08-14T22:24:40.640Z,98688.83
2023-08-14T22:27:08.356Z,98691.69
2023-08-14T22:29:35.200Z,98693.06
2023-08-14T22:32:02.192Z,98691.55
2023-08-14T22:34:28.946Z,98691.14
2023-08-14T22:36:55.722Z,98693.09
2023-08-14T22:39:22.465Z,98686.97
2023-08-14T22:41:49.262Z,98685.64
2023-08-14T22:44:16.005Z,98683.19
2023-08-14T22:46:42.827Z,98680.27
2023-08-14T22:49:09.642Z,98677.51
2023-08-14T22:51:36.422Z,98675.05
2023-08-14T22:54:03.868Z,98673.64
2023-08-14T22:56:30.690Z,98676.71
2023-08-14T22:58:57.486Z,98673.71
2023-08-14T23:01:24.315Z,98677.98
2023-08-14T23:03:51.208Z,98676.80
2023-08-14T23:06:18.044Z,98674.27
2023-08-14T23:08:44.893Z,98675.19
2023-08-14T23:11:11.732Z,98675.08
2023-08-14T23:13:38.528Z,98680.27
2023-08-14T23:16:05.545Z,98681.55
2023-08-14T23:18:32.389Z,98681.89
2023-08-14T23:20:59.189Z,98683.02
2023-08-14T23:23:25.873Z,98680.55
2023-08-14T23:25:52.753Z,98682.30
2023-08-14T23:28:19.586Z,98683.11
2023-08-14T23:30:46.388Z,98680.88
2023-08-14T23:33:13.215Z,98677.95
2023-08-14T23:35:39.989Z,98676.27
2023-08-14T23:38:06.790Z,98678.46
2023-08-14T23:40:33.609Z,98682.01
2023-08-14T23:43:00.386Z,98681.14
2023-08-14T23:45:27.180Z,98680.02
2023-08-14T23:47:54.125Z,98680.38
2023-08-14T23:50:20.964Z,98681.14
2023-08-14T23:52:47.790Z,98687.27
2023-08-14T23:55:14.763Z,98693.65
2023-08-14T23:57:41.627Z,98691.30
